createdAt,value
2022-12-03T15:14:41.438Z,153.73
2022-12-03T15:17:45.696Z,124.47
2022-12-03T15:20:47.422Z,105.03
2022-12-03T15:23:49.367Z,95.65
2022-12-03T15:26:52.414Z,85.72
2022-12-03T15:29:54.811Z,75.15
2022-12-03T15:32:56.755Z,73.90
2022-12-03T15:35:58.466Z,76.20
2022-12-03T15:39:00.511Z,71.10
2022-12-03T15:42:02.400Z,72.15
2022-12-03T15:45:05.404Z,62.75
2022-12-03T15:48:07.361Z,63.90
2022-12-03T15:51:09.110Z,63.67
2022-12-03T15:54:12.212Z,65.28
2022-12-03T15:57:14.370Z,59.30
2022-12-03T16:00:16.856Z,62.22
2022-12-03T16:03:18.758Z,63.75
2022-12-03T16:06:20.566Z,61.08
2022-12-03T16:09:27.124Z,61.58
2022-12-03T16:12:29.513Z,71.63
2022-12-03T16:15:31.511Z,67.10
2022-12-03T16:18:33.265Z,70.88
2022-12-03T16:21:35.063Z,77.70
2022-12-03T16:24:36.904Z,66.60
2022-12-03T16:27:38.728Z,61.10
2022-12-03T16:30:40.639Z,60.65
2022-12-03T16:33:42.352Z,65.38
2022-12-03T16:36:45.672Z,62.25
2022-12-03T16:39:47.458Z,68.30
2022-12-03T16:42:49.310Z,63.00
2022-12-03T16:46:01.786Z,51.35
2022-12-03T16:49:03.962Z,58.42
2022-12-03T16:52:05.900Z,62.47
2022-12-03T16:55:08.108Z,62.17
2022-12-03T16:58:10.200Z,56.17
2022-12-03T17:01:12.125Z,59.90
2022-12-03T17:04:13.822Z,61.15
2022-12-03T17:07:15.432Z,56.58
2022-12-03T17:10:18.047Z,57.95
2022-12-03T17:13:19.898Z,57.25
2022-12-03T17:16:21.782Z,58.13
2022-12-03T17:19:23.676Z,52.60
2022-12-03T17:22:25.442Z,54.50
2022-12-03T17:25:28.098Z,49.30
2022-12-03T17:28:29.735Z,57.88
2022-12-03T17:31:32.940Z,53.22
2022-12-03T17:34:37.280Z,45.72
2022-12-03T17:37:38.920Z,52.95
2022-12-03T17:40:40.666Z,55.20
2022-12-03T17:43:43.358Z,53.15
2022-12-03T17:46:44.955Z,56.72
2022-12-03T17:49:46.876Z,49.00
2022-12-03T17:52:48.713Z,46.38
2022-12-03T17:55:50.532Z,55.38
2022-12-03T17:58:52.451Z,51.85
2022-12-03T18:01:54.178Z,52.53
2022-12-03T18:04:55.790Z,57.55
2022-12-03T18:07:57.568Z,60.40
2022-12-03T18:10:59.430Z,55.95
2022-12-03T18:14:01.596Z,49.17
2022-12-03T18:17:03.390Z,53.55
2022-12-03T18:20:05.750Z,53.85
2022-12-03T18:23:07.410Z,48.88
2022-12-03T18:26:09.256Z,53.00
2022-12-03T18:29:10.873Z,61.20
2022-12-03T18:32:27.818Z,58.55
2022-12-03T18:35:30.601Z,48.58
2022-12-03T18:38:33.764Z,53.45
2022-12-03T18:41:36.205Z,49.00
2022-12-03T18:44:38.440Z,50.72
2022-12-03T18:47:40.654Z,52.90
2022-12-03T18:50:43.534Z,53.90
2022-12-03T18:53:46.102Z,56.00
2022-12-03T18:56:47.879Z,52.53
2022-12-03T18:59:49.468Z,55.53
2022-12-03T19:03:06.578Z,53.75
2022-12-03T19:06:18.950Z,58.83
2022-12-03T19:09:20.947Z,57.78
2022-12-03T19:12:22.766Z,55.80
2022-12-03T19:15:24.434Z,58.05
2022-12-03T19:18:27.300Z,54.25
2022-12-03T19:21:33.536Z,51.50
2022-12-03T19:24:35.483Z,59.50
2022-12-03T19:27:37.095Z,53.15
2022-12-03T19:30:38.847Z,56.88
2022-12-03T19:33:42.603Z,57.55
2022-12-03T19:36:44.474Z,58.83
2022-12-03T19:39:46.814Z,61.45
2022-12-03T19:42:48.923Z,60.13
2022-12-03T19:45:50.712Z,54.05
2022-12-03T19:48:53.860Z,48.85
2022-12-03T19:51:55.590Z,60.65
2022-12-03T19:54:57.362Z,52.90
2022-12-03T19:57:58.945Z,58.50
2022-12-03T20:01:15.997Z,58.60
2022-12-03T20:04:17.746Z,56.15
2022-12-03T20:07:19.397Z,60.13
2022-12-03T20:10:21.098Z,63.28
2022-12-03T20:13:22.828Z,57.65
2022-12-03T20:16:25.755Z,54.83
2022-12-03T20:19:27.465Z,52.95
2022-12-03T20:22:29.131Z,59.75
2022-12-03T20:25:30.758Z,62.55
2022-12-03T20:28:32.580Z,61.08
2022-12-03T20:31:34.295Z,58.17
2022-12-03T20:34:36.327Z,56.47
2022-12-03T20:37:37.954Z,61.42
2022-12-03T20:40:39.794Z,55.17
2022-12-03T20:43:41.869Z,55.80
2022-12-03T20:46:43.628Z,60.05
2022-12-03T20:49:46.696Z,59.80
2022-12-03T20:53:09.280Z,57.03
2022-12-03T20:56:11.075Z,56.13
2022-12-03T20:59:15.285Z,58.85
2022-12-03T21:02:17.110Z,56.50
2022-12-03T21:05:18.925Z,58.10
2022-12-03T21:08:39.200Z,57.53
2022-12-03T21:11:42.746Z,54.80
2022-12-03T21:14:44.554Z,53.60
2022-12-03T21:17:46.367Z,55.90
2022-12-03T21:20:48.060Z,58.13
2022-12-03T21:23:49.850Z,50.30
2022-12-03T21:26:51.513Z,54.15
2022-12-03T21:29:53.340Z,53.20
2022-12-03T21:32:55.407Z,54.95
2022-12-03T21:35:57.721Z,60.17
2022-12-03T21:38:59.680Z,56.28
2022-12-03T21:42:34.487Z,53.13
2022-12-03T21:45:25.139Z,55.97
2022-12-03T21:48:26.845Z,55.90
2022-12-03T21:51:28.553Z,56.67
2022-12-03T21:54:30.207Z,54.20
2022-12-03T21:57:34.531Z,57.10
2022-12-03T22:00:36.535Z,54.10
2022-12-03T22:03:38.319Z,56.28
2022-12-03T22:06:39.947Z,62.33
2022-12-03T22:09:41.717Z,57.38
2022-12-03T22:12:43.269Z,55.08
2022-12-03T22:15:44.995Z,52.28
2022-12-03T22:18:47.273Z,61.80
2022-12-03T22:21:49.058Z,62.88
2022-12-03T22:24:50.724Z,58.90
2022-12-03T22:27:52.521Z,63.97
2022-12-03T22:30:54.614Z,57.13
2022-12-03T22:33:56.429Z,63.70
2022-12-03T22:36:58.331Z,63.47
2022-12-03T22:39:59.938Z,58.67
2022-12-03T22:43:01.541Z,65.80
2022-12-03T22:46:04.814Z,60.30
2022-12-03T22:49:07.607Z,66.68
2022-12-03T22:52:09.577Z,57.53
2022-12-03T22:55:11.396Z,60.60
2022-12-03T22:58:13.263Z,63.38
2022-12-03T23:01:30.599Z,63.90
2022-12-03T23:04:32.331Z,58.53
2022-12-03T23:07:34.065Z,64.13
2022-12-03T23:10:38.146Z,60.90
2022-12-03T23:13:40.005Z,60.55
2022-12-03T23:16:41.721Z,66.15
2022-12-03T23:19:43.351Z,64.90
2022-12-03T23:22:45.196Z,54.95
2022-12-03T23:26:04.129Z,59.60
2022-12-03T23:29:06.688Z,62.58
2022-12-03T23:32:08.456Z,65.88
2022-12-03T23:35:12.223Z,66.40
2022-12-03T23:38:14.067Z,69.45
2022-12-03T23:41:19.555Z,61.85
2022-12-03T23:44:22.691Z,63.42
2022-12-03T23:47:24.414Z,66.88
2022-12-03T23:50:27.009Z,64.68
2022-12-03T23:53:29.349Z,71.75
2022-12-03T23:56:31.302Z,64.00
2022-12-03T23:59:32.945Z,66.38
